Time;durP1;ratioP1;P1;durP2;ratioP2;P2;SDS_P1;SDS_P2;PMS_P1;PMS_P2;Temp;Humidity;BMP_temperature;BMP_pressure;BME280_temperature;BME280_humidity;BME280_pressure;Samples;Min_cycle;Max_cycle;Signal;HPM_P1;HPM_P2
2023/05/25 00:02:18;;;;;;;4.80;2.80;;;;;;;22.45;61.75;100369.84;108118;1286;22004;-58
2023/05/25 00:04:47;;;;;;;4.40;2.90;;;;;;;22.47;61.90;100368.65;108114;1286;21984;-59
2023/05/25 00:07:13;;;;;;;4.80;2.30;;;;;;;22.49;62.11;100371.05;108150;1277;22523;-58
2023/05/25 00:09:40;;;;;;;5.70;2.90;;;;;;;22.50;62.11;100372.23;108135;1281;22469;-59
2023/05/25 00:12:06;;;;;;;3.90;2.40;;;;;;;22.53;62.23;100372.77;108152;1280;22027;-59
2023/05/25 00:14:32;;;;;;;6.30;2.90;;;;;;;22.57;62.12;100375.34;108287;1274;22234;-59
2023/05/25 00:17:02;;;;;;;5.30;2.80;;;;;;;22.60;62.15;100370.73;108100;1281;21990;-58
2023/05/25 00:19:28;;;;;;;5.10;2.60;;;;;;;22.63;62.12;100367.85;108105;1286;21987;-59
2023/05/25 00:21:54;;;;;;;5.10;3.10;;;;;;;22.67;62.11;100368.85;108112;1286;22029;-59
2023/05/25 00:24:20;;;;;;;6.30;3.10;;;;;;;22.68;62.22;100369.14;108039;1281;22003;-59
2023/05/25 00:26:46;;;;;;;4.80;3.30;;;;;;;22.69;62.19;100365.11;108061;1286;21994;-58
2023/05/25 00:29:13;;;;;;;6.50;3.70;;;;;;;22.68;62.22;100358.60;108057;1284;22005;-60
2023/05/25 00:31:39;;;;;;;7.30;3.40;;;;;;;22.66;62.27;100356.72;108083;1280;22000;-59
2023/05/25 00:34:05;;;;;;;7.00;3.40;;;;;;;22.66;62.32;100356.38;108042;1281;21990;-59
2023/05/25 00:36:30;;;;;;;6.40;2.80;;;;;;;22.68;62.42;100357.34;108067;1277;21998;-58
2023/05/25 00:38:56;;;;;;;5.50;3.00;;;;;;;22.72;62.15;100359.95;108084;1287;21998;-59
2023/05/25 00:41:22;;;;;;;6.40;3.40;;;;;;;22.73;62.26;100359.85;108088;1287;21997;-59
2023/05/25 00:43:47;;;;;;;4.80;3.40;;;;;;;22.76;62.29;100360.80;107847;1287;21986;-58
2023/05/25 00:46:13;;;;;;;5.30;3.10;;;;;;;22.76;62.28;100358.98;108145;1281;22054;-59
2023/05/25 00:48:39;;;;;;;4.80;3.00;;;;;;;22.75;62.15;100359.03;108127;1287;21993;-59
2023/05/25 00:51:05;;;;;;;5.30;3.60;;;;;;;22.76;61.97;100357.54;108160;1281;22007;-58
2023/05/25 00:53:32;;;;;;;5.20;3.40;;;;;;;22.74;61.93;100353.17;108153;1281;21997;-58
2023/05/25 00:56:04;;;;;;;5.00;3.20;;;;;;;22.70;61.80;100351.48;108131;1287;22045;-59
2023/05/25 00:58:31;;;;;;;4.30;3.40;;;;;;;22.64;61.93;100347.91;108226;1283;21990;-59
2023/05/25 01:00:57;;;;;;;5.10;3.70;;;;;;;22.62;62.10;100350.59;108255;1286;22007;-59
2023/05/25 01:03:26;;;;;;;3.90;3.10;;;;;;;22.58;61.93;100360.84;107851;1287;21994;-58
2023/05/25 01:05:53;;;;;;;5.30;3.40;;;;;;;22.57;62.03;100362.15;108098;1280;21994;-59
2023/05/25 01:08:20;;;;;;;4.50;2.80;;;;;;;22.56;62.02;100361.09;108130;1286;21990;-59
2023/05/25 01:10:47;;;;;;;7.10;3.10;;;;;;;22.53;61.95;100357.52;107976;1283;21992;-59
2023/05/25 01:13:13;;;;;;;4.70;2.80;;;;;;;22.52;61.79;100355.29;108302;1284;21995;-60
2023/05/25 01:15:39;;;;;;;4.30;3.00;;;;;;;22.52;61.89;100354.24;108149;1280;22027;-59
2023/05/25 01:18:05;;;;;;;5.50;3.50;;;;;;;22.52;62.02;100359.08;107865;1287;21990;-60
2023/05/25 01:20:30;;;;;;;6.40;3.50;;;;;;;22.48;61.96;100365.71;108171;1281;22173;-59
2023/05/25 01:22:58;;;;;;;6.60;3.60;;;;;;;22.42;62.09;100366.41;108191;1287;21999;-59
2023/05/25 01:25:39;;;;;;;4.40;2.50;;;;;;;22.32;62.04;100368.09;108141;1286;21995;-58
2023/05/25 01:28:15;;;;;;;4.40;3.10;;;;;;;22.25;62.02;100364.61;108158;1284;21995;-59
2023/05/25 01:30:41;;;;;;;5.20;3.50;;;;;;;22.19;61.97;100359.80;108156;1284;23611;-59
2023/05/25 01:33:06;;;;;;;4.70;3.10;;;;;;;22.15;62.17;100358.95;107932;1283;22623;-59
2023/05/25 01:35:32;;;;;;;5.00;3.00;;;;;;;22.13;62.09;100358.71;107962;1286;22462;-59
2023/05/25 01:37:58;;;;;;;4.40;3.10;;;;;;;22.13;62.21;100359.95;107874;1286;22001;-59
2023/05/25 01:40:23;;;;;;;7.50;3.40;;;;;;;22.15;62.17;100360.23;108120;1287;22026;-59
2023/05/25 01:42:49;;;;;;;6.30;3.70;;;;;;;22.15;62.02;100363.27;108128;1286;22184;-59
2023/05/25 01:45:14;;;;;;;4.60;3.30;;;;;;;22.11;61.96;100366.69;108152;1283;21987;-59
2023/05/25 01:47:52;;;;;;;11.10;3.40;;;;;;;22.07;62.09;100364.47;107847;1287;21996;-61
2023/05/25 01:50:33;;;;;;;7.70;3.30;;;;;;;22.00;62.02;100355.21;108235;1277;22002;-59
2023/05/25 01:53:02;;;;;;;4.40;3.00;;;;;;;21.92;62.16;100353.95;108133;1277;22126;-59
2023/05/25 01:55:31;;;;;;;5.30;2.90;;;;;;;21.89;61.62;100357.31;108166;1283;21993;-59
2023/05/25 01:57:58;;;;;;;6.80;2.80;;;;;;;21.86;61.47;100359.27;108250;1283;21990;-59
2023/05/25 02:00:25;;;;;;;5.10;3.30;;;;;;;21.84;61.56;100359.38;108110;1280;21990;-59
2023/05/25 02:02:51;;;;;;;7.30;2.90;;;;;;;21.83;61.60;100360.70;108143;1286;22047;-60
2023/05/25 02:05:18;;;;;;;5.00;3.50;;;;;;;21.79;61.47;100364.34;108127;1276;22006;-59
2023/05/25 02:07:44;;;;;;;9.90;4.00;;;;;;;21.74;61.43;100364.64;108183;1277;21990;-59
2023/05/25 02:10:10;;;;;;;4.70;3.20;;;;;;;21.67;61.50;100369.30;108124;1287;21991;-58
2023/05/25 02:12:35;;;;;;;7.40;3.30;;;;;;;21.62;61.61;100373.54;108128;1282;22046;-58
2023/05/25 02:15:01;;;;;;;5.90;3.20;;;;;;;21.59;61.43;100374.61;108075;1283;21990;-59
2023/05/25 02:17:27;;;;;;;6.80;3.50;;;;;;;21.52;61.48;100371.77;108107;1286;21986;-58
2023/05/25 02:19:53;;;;;;;4.00;3.20;;;;;;;21.47;61.50;100376.89;108136;1277;21990;-60
2023/05/25 02:22:21;;;;;;;4.90;3.30;;;;;;;21.43;61.96;100379.59;108134;1283;21990;-59
2023/05/25 02:24:47;;;;;;;5.00;2.80;;;;;;;21.35;62.11;100376.13;108117;1281;21993;-59
2023/05/25 02:27:13;;;;;;;5.10;3.30;;;;;;;21.28;62.13;100376.54;108084;1280;21986;-59
2023/05/25 02:29:39;;;;;;;5.20;3.70;;;;;;;21.18;62.51;100376.74;108123;1284;21988;-58
2023/05/25 02:32:05;;;;;;;6.20;3.80;;;;;;;21.10;62.59;100375.06;108100;1286;22000;-59
2023/05/25 02:34:31;;;;;;;6.00;3.40;;;;;;;21.02;62.65;100369.79;108114;1286;21994;-58
2023/05/25 02:36:57;;;;;;;7.40;3.10;;;;;;;20.98;62.41;100373.02;108104;1283;21995;-58
2023/05/25 02:39:26;;;;;;;5.10;3.40;;;;;;;20.94;62.54;100372.73;108110;1281;22405;-58
2023/05/25 02:41:52;;;;;;;9.00;3.50;;;;;;;20.88;62.86;100372.71;108200;1276;21984;-58
2023/05/25 02:44:18;;;;;;;7.40;3.90;;;;;;;20.85;63.38;100372.55;108141;1284;21989;-58
2023/05/25 02:46:43;;;;;;;6.70;3.50;;;;;;;20.82;63.68;100375.89;108182;1283;21989;-59
2023/05/25 02:49:09;;;;;;;5.60;3.40;;;;;;;20.83;63.30;100376.04;108254;1281;22024;-58
2023/05/25 02:51:35;;;;;;;5.70;2.70;;;;;;;20.85;63.48;100376.06;108119;1283;22024;-58
2023/05/25 02:54:02;;;;;;;7.30;3.70;;;;;;;20.90;63.57;100374.20;108109;1281;21991;-58
2023/05/25 02:56:27;;;;;;;5.80;3.30;;;;;;;20.93;63.59;100374.02;108086;1280;21986;-58
2023/05/25 02:58:53;;;;;;;6.20;3.30;;;;;;;20.99;63.41;100372.12;108180;1277;21982;-59
2023/05/25 03:01:19;;;;;;;5.60;3.40;;;;;;;21.03;63.54;100370.27;108045;1277;21993;-58
2023/05/25 03:03:45;;;;;;;5.70;3.50;;;;;;;21.02;63.48;100373.88;108109;1286;21992;-58
2023/05/25 03:06:13;;;;;;;6.30;3.10;;;;;;;21.00;63.46;100374.03;108089;1277;21988;-58
2023/05/25 03:08:41;;;;;;;7.20;3.30;;;;;;;20.93;64.17;100370.83;108166;1284;21996;-58
2023/05/25 03:11:07;;;;;;;5.30;3.40;;;;;;;20.84;64.44;100371.30;108143;1277;21985;-58
2023/05/25 03:13:33;;;;;;;6.70;3.20;;;;;;;20.84;64.46;100368.14;108073;1286;21984;-60
2023/05/25 03:16:00;;;;;;;4.20;3.10;;;;;;;20.85;64.77;100368.61;108132;1286;24329;-59
2023/05/25 03:18:26;;;;;;;6.90;3.10;;;;;;;20.84;65.45;100369.17;108098;1283;21993;-58
2023/05/25 03:20:52;;;;;;;6.00;3.40;;;;;;;20.83;65.88;100367.13;108162;1284;21993;-59
2023/05/25 03:23:18;;;;;;;5.60;2.90;;;;;;;20.83;66.88;100365.48;108216;1276;22040;-59
2023/05/25 03:25:43;;;;;;;5.10;3.60;;;;;;;20.84;66.83;100369.41;108210;1286;22011;-60
2023/05/25 03:28:09;;;;;;;5.60;3.30;;;;;;;20.86;67.41;100371.94;108101;1281;21995;-60
2023/05/25 03:30:36;;;;;;;6.20;3.30;;;;;;;20.90;67.38;100369.38;108161;1278;21999;-60
2023/05/25 03:33:02;;;;;;;8.20;3.40;;;;;;;20.96;67.40;100373.70;108120;1280;21981;-61
2023/05/25 03:35:27;;;;;;;9.40;3.70;;;;;;;21.04;67.68;100372.92;108081;1286;21997;-60
2023/05/25 03:37:53;;;;;;;8.40;3.10;;;;;;;21.12;67.73;100377.59;108066;1281;22457;-59
2023/05/25 03:40:19;;;;;;;5.20;3.30;;;;;;;21.22;67.29;100377.02;108235;1283;21998;-58
2023/05/25 03:42:45;;;;;;;8.90;2.90;;;;;;;21.35;67.56;100378.11;108305;1281;21983;-59
2023/05/25 03:45:11;;;;;;;9.20;3.60;;;;;;;21.46;67.92;100377.67;108141;1276;21989;-60
2023/05/25 03:47:36;;;;;;;9.10;4.30;;;;;;;21.59;67.77;100374.05;108099;1277;21997;-60
2023/05/25 03:50:03;;;;;;;7.20;3.00;;;;;;;21.73;67.79;100371.48;108087;1277;21992;-58
2023/05/25 03:52:30;;;;;;;9.50;3.20;;;;;;;21.89;67.45;100372.29;108154;1283;21989;-60
2023/05/25 03:54:56;;;;;;;8.10;3.20;;;;;;;22.09;66.97;100372.56;108097;1286;23739;-60
2023/05/25 03:57:21;;;;;;;5.10;2.90;;;;;;;22.19;66.88;100376.76;108065;1286;21996;-60
2023/05/25 03:59:47;;;;;;;4.60;3.10;;;;;;;22.28;66.97;100377.29;108147;1280;21988;-58
2023/05/25 04:02:12;;;;;;;5.80;2.80;;;;;;;22.40;66.68;100379.76;108085;1277;22083;-60
2023/05/25 04:04:40;;;;;;;7.90;3.80;;;;;;;22.52;66.50;100379.98;108069;1281;22273;-60
2023/05/25 04:07:07;;;;;;;5.80;3.20;;;;;;;22.63;66.36;100376.41;108122;1286;21992;-57
2023/05/25 04:09:32;;;;;;;6.90;3.90;;;;;;;22.75;66.23;100379.41;108124;1277;22024;-60
2023/05/25 04:11:58;;;;;;;5.40;2.80;;;;;;;22.85;66.16;100379.31;108116;1281;22001;-58
2023/05/25 04:14:24;;;;;;;5.60;3.00;;;;;;;22.95;66.35;100378.14;108088;1286;21990;-58
2023/05/25 04:16:50;;;;;;;4.70;2.90;;;;;;;23.04;66.13;100382.42;108126;1286;22004;-58
2023/05/25 04:19:16;;;;;;;6.20;3.10;;;;;;;23.10;65.89;100382.20;108109;1281;21995;-60
2023/05/25 04:21:41;;;;;;;4.30;3.10;;;;;;;23.17;65.54;100381.94;108080;1281;22231;-59
2023/05/25 04:24:07;;;;;;;6.20;3.00;;;;;;;23.23;65.44;100382.11;108099;1281;21955;-61
2023/05/25 04:26:33;;;;;;;5.90;3.20;;;;;;;23.27;65.44;100382.38;108069;1284;21986;-56
2023/05/25 04:29:00;;;;;;;5.70;3.30;;;;;;;23.34;65.27;100380.16;108082;1277;21990;-57
2023/05/25 04:31:27;;;;;;;4.30;3.00;;;;;;;23.42;65.32;100377.63;108143;1277;21989;-57
2023/05/25 04:33:54;;;;;;;4.50;3.00;;;;;;;23.52;65.58;100377.70;108306;1286;22219;-60
2023/05/25 04:36:21;;;;;;;6.80;3.10;;;;;;;23.65;65.62;100379.39;108226;1284;22068;-58
2023/05/25 04:38:47;;;;;;;4.10;2.90;;;;;;;23.79;65.73;100379.15;108254;1283;23054;-59
2023/05/25 04:41:13;;;;;;;4.70;3.00;;;;;;;23.93;65.97;100381.42;108118;1277;21994;-58
2023/05/25 04:43:39;;;;;;;7.00;3.90;;;;;;;24.10;66.14;100381.52;108139;1283;21987;-58
2023/05/25 04:46:06;;;;;;;5.50;3.10;;;;;;;24.29;66.34;100388.15;108149;1284;21991;-60
2023/05/25 04:48:33;;;;;;;5.50;3.10;;;;;;;24.50;66.01;100384.55;108238;1274;21989;-58
2023/05/25 04:51:01;;;;;;;5.80;3.00;;;;;;;24.69;65.82;100384.11;108108;1286;21990;-59
2023/05/25 04:53:28;;;;;;;8.40;3.70;;;;;;;24.92;66.11;100380.64;108259;1280;22004;-60
2023/05/25 04:55:54;;;;;;;7.40;3.80;;;;;;;25.16;66.07;100386.80;108084;1286;22053;-58
2023/05/25 04:58:21;;;;;;;4.90;2.90;;;;;;;25.39;65.80;100388.95;108122;1284;22125;-60
2023/05/25 05:00:47;;;;;;;5.40;3.60;;;;;;;25.63;65.94;100388.59;108236;1286;23666;-60
2023/05/25 05:03:12;;;;;;;5.00;3.20;;;;;;;25.87;65.23;100392.89;108123;1277;22004;-57
2023/05/25 05:05:38;;;;;;;8.70;3.50;;;;;;;26.06;64.48;100392.38;108067;1286;21987;-57
2023/05/25 05:08:04;;;;;;;7.10;3.00;;;;;;;26.28;64.65;100394.05;108097;1286;22233;-58
2023/05/25 05:10:30;;;;;;;3.50;2.80;;;;;;;26.53;64.65;100395.18;108152;1280;21988;-59
2023/05/25 05:12:55;;;;;;;5.30;3.00;;;;;;;26.77;64.47;100395.65;108124;1281;21978;-57
2023/05/25 05:15:21;;;;;;;4.90;3.50;;;;;;;27.00;63.97;100391.51;108056;1281;21997;-59
2023/05/25 05:17:47;;;;;;;4.90;3.40;;;;;;;27.17;63.26;100394.64;108094;1277;21988;-60
2023/05/25 05:20:12;;;;;;;6.30;3.20;;;;;;;27.34;63.18;100397.90;108103;1277;21989;-59
2023/05/25 05:22:39;;;;;;;5.50;3.20;;;;;;;27.52;62.70;100403.23;108225;1287;21991;-57
2023/05/25 05:25:06;;;;;;;5.90;3.30;;;;;;;27.67;61.74;100405.84;108157;1284;22204;-60
2023/05/25 05:27:32;;;;;;;5.20;3.60;;;;;;;27.76;60.92;100404.39;108174;1283;22174;-59
2023/05/25 05:29:57;;;;;;;6.70;3.50;;;;;;;27.79;60.39;100408.46;108050;1280;21992;-60
2023/05/25 05:32:26;;;;;;;5.00;3.20;;;;;;;27.87;60.66;100409.58;108162;1284;21992;-59
2023/05/25 05:34:51;;;;;;;6.80;3.70;;;;;;;28.00;60.16;100409.16;108158;1284;21991;-58
2023/05/25 05:37:17;;;;;;;6.70;3.20;;;;;;;28.13;60.18;100412.59;108080;1277;21988;-60
2023/05/25 05:39:42;;;;;;;7.80;3.70;;;;;;;28.28;59.57;100411.18;108074;1281;21980;-59
2023/05/25 05:42:08;;;;;;;6.90;3.40;;;;;;;28.37;59.56;100413.97;108119;1280;21993;-59
2023/05/25 05:44:34;;;;;;;6.50;3.60;;;;;;;28.53;59.84;100415.30;108103;1286;21992;-61
2023/05/25 05:47:00;;;;;;;7.30;4.20;;;;;;;28.75;59.44;100418.46;108289;1284;22002;-60
2023/05/25 05:49:29;;;;;;;4.30;3.40;;;;;;;28.94;58.82;100422.17;108096;1284;21979;-59
2023/05/25 05:51:55;;;;;;;5.40;4.00;;;;;;;29.08;58.74;100424.36;108241;1283;21987;-60
2023/05/25 05:54:21;;;;;;;4.70;3.80;;;;;;;29.20;58.04;100422.22;108078;1286;22035;-60
2023/05/25 05:56:46;;;;;;;6.60;4.40;;;;;;;29.31;58.24;100422.09;108071;1286;21989;-60
2023/05/25 05:59:12;;;;;;;5.40;4.00;;;;;;;29.48;58.50;100421.73;108117;1281;21992;-60
2023/05/25 06:01:38;;;;;;;5.70;4.00;;;;;;;29.68;58.39;100426.92;108172;1277;21990;-60
2023/05/25 06:04:06;;;;;;;6.20;3.70;;;;;;;29.91;57.95;100427.20;108125;1287;21991;-60
2023/05/25 06:06:33;;;;;;;5.30;4.20;;;;;;;30.10;57.78;100426.86;108134;1277;23756;-60
2023/05/25 06:09:02;;;;;;;6.60;4.50;;;;;;;30.31;57.83;100426.19;108192;1283;21997;-60
2023/05/25 06:11:28;;;;;;;6.60;4.80;;;;;;;30.58;57.69;100426.67;108163;1280;23058;-60
2023/05/25 06:13:54;;;;;;;5.10;4.00;;;;;;;30.82;57.21;100424.36;108110;1277;22000;-61
2023/05/25 06:16:20;;;;;;;6.70;4.40;;;;;;;31.02;57.08;100421.34;108104;1284;21994;-60
2023/05/25 06:18:45;;;;;;;7.50;4.60;;;;;;;31.21;56.51;100415.94;108165;1281;22455;-60
2023/05/25 06:21:11;;;;;;;6.10;4.90;;;;;;;31.42;55.51;100415.48;108112;1287;21996;-59
2023/05/25 06:23:36;;;;;;;6.40;4.10;;;;;;;31.54;54.55;100413.73;108128;1277;21990;-60
2023/05/25 06:26:05;;;;;;;9.50;4.70;;;;;;;31.60;54.50;100415.81;108117;1284;22001;-59
2023/05/25 06:28:31;;;;;;;6.60;4.40;;;;;;;31.69;54.52;100414.95;108070;1283;21992;-59
2023/05/25 06:30:57;;;;;;;5.20;4.40;;;;;;;31.83;54.56;100420.61;108162;1287;21989;-59
2023/05/25 06:33:23;;;;;;;6.00;4.80;;;;;;;32.01;54.22;100416.98;108131;1287;21995;-60
2023/05/25 06:35:49;;;;;;;6.10;4.40;;;;;;;32.23;54.21;100414.94;108167;1277;22049;-60
2023/05/25 06:38:16;;;;;;;5.50;4.90;;;;;;;32.45;53.64;100415.01;108221;1287;21998;-59
2023/05/25 06:40:42;;;;;;;6.90;5.20;;;;;;;32.63;53.05;100413.91;108205;1286;21989;-61
2023/05/25 06:43:08;;;;;;;6.40;4.60;;;;;;;32.78;52.52;100415.36;108321;1280;21986;-61
2023/05/25 06:45:33;;;;;;;6.60;4.60;;;;;;;33.02;52.24;100419.95;108106;1286;22083;-60
2023/05/25 06:47:59;;;;;;;5.40;4.10;;;;;;;33.29;52.29;100420.15;108100;1286;23724;-60
2023/05/25 06:50:25;;;;;;;6.50;4.20;;;;;;;33.50;51.51;100416.05;108096;1286;21992;-59
2023/05/25 06:52:51;;;;;;;6.00;4.40;;;;;;;33.72;51.90;100418.28;108219;1286;21989;-59
2023/05/25 06:55:16;;;;;;;6.10;4.50;;;;;;;33.96;51.44;100418.53;108206;1286;21990;-59
2023/05/25 06:57:43;;;;;;;6.30;4.30;;;;;;;34.10;50.00;100421.88;108149;1283;21994;-60
2023/05/25 07:00:11;;;;;;;6.20;4.50;;;;;;;34.26;50.33;100423.73;108125;1286;22037;-59
2023/05/25 07:02:37;;;;;;;6.00;4.50;;;;;;;34.50;50.46;100424.91;108160;1286;22771;-58
2023/05/25 07:05:04;;;;;;;6.00;4.50;;;;;;;34.74;50.42;100423.09;108084;1286;21992;-59
2023/05/25 07:07:31;;;;;;;5.10;4.40;;;;;;;34.96;49.76;100424.31;108135;1284;22099;-58
2023/05/25 07:09:57;;;;;;;6.00;4.20;;;;;;;35.15;49.16;100421.86;108248;1281;21997;-60
2023/05/25 07:15:23;;;;;;;8.00;4.60;;;;;;;34.27;54.66;100431.10;107317;1292;550508;-59
2023/05/25 07:17:49;;;;;;;4.90;4.10;;;;;;;35.85;48.66;100428.02;107776;1293;21997;-58
2023/05/25 07:20:15;;;;;;;4.70;3.50;;;;;;;36.13;47.94;100431.36;107534;1290;22161;-60
2023/05/25 07:22:42;;;;;;;7.40;4.10;;;;;;;36.37;47.63;100430.05;107481;1294;21997;-59
2023/05/25 07:25:08;;;;;;;6.30;4.10;;;;;;;36.61;46.25;100434.63;107474;1294;22002;-60
2023/05/25 07:27:34;;;;;;;4.60;3.50;;;;;;;36.69;45.27;100435.00;107457;1291;222028;-58
2023/05/25 07:30:00;;;;;;;4.90;3.60;;;;;;;36.72;45.09;100432.67;107812;1290;21991;-59
2023/05/25 07:32:26;;;;;;;5.00;3.30;;;;;;;36.76;45.25;100432.80;107829;1292;21990;-59
2023/05/25 07:34:52;;;;;;;4.20;3.00;;;;;;;36.90;44.92;100431.41;107881;1292;21992;-60
2023/05/25 07:37:18;;;;;;;5.60;3.60;;;;;;;37.09;44.47;100431.48;107843;1292;21989;-59
2023/05/25 07:39:44;;;;;;;5.10;3.50;;;;;;;37.20;43.41;100433.22;107811;1291;23647;-59
2023/05/25 07:42:10;;;;;;;4.00;3.10;;;;;;;37.23;43.27;100431.98;107785;1290;22168;-59
2023/05/25 07:44:35;;;;;;;6.20;2.80;;;;;;;37.31;43.38;100432.36;107923;1290;21992;-59
2023/05/25 07:47:01;;;;;;;4.50;2.90;;;;;;;37.44;43.08;100435.27;108003;1287;21988;-60
2023/05/25 07:49:27;;;;;;;4.00;3.40;;;;;;;37.54;42.06;100436.69;107898;1284;21989;-59
2023/05/25 07:51:52;;;;;;;4.70;3.10;;;;;;;37.62;42.33;100434.19;107949;1290;22008;-60
2023/05/25 07:54:18;;;;;;;4.00;3.10;;;;;;;37.70;41.94;100436.98;107926;1290;23071;-60
2023/05/25 07:56:43;;;;;;;4.80;3.30;;;;;;;37.70;41.21;100437.73;107931;1284;21991;-60
2023/05/25 07:59:09;;;;;;;4.30;3.10;;;;;;;37.60;40.98;100433.83;107972;1290;21994;-60
2023/05/25 08:01:35;;;;;;;10.20;3.20;;;;;;;37.62;41.03;100434.86;107962;1290;22000;-61
2023/05/25 08:04:01;;;;;;;5.90;2.70;;;;;;;37.73;40.53;100430.58;107938;1290;22416;-60
2023/05/25 08:06:26;;;;;;;6.60;2.90;;;;;;;37.83;40.58;100429.36;107937;1290;21993;-60
2023/05/25 08:08:52;;;;;;;4.70;2.60;;;;;;;38.00;40.06;100428.81;107932;1288;22010;-59
2023/05/25 08:11:22;;;;;;;4.30;2.50;;;;;;;38.05;38.20;100426.65;107907;1284;21991;-59
2023/05/25 08:13:47;;;;;;;3.50;2.60;;;;;;;37.89;38.97;100427.56;107951;1281;22251;-59
2023/05/25 08:16:13;;;;;;;4.40;3.10;;;;;;;37.99;39.62;100428.75;107927;1280;22043;-59
2023/05/25 08:18:42;;;;;;;4.40;2.80;;;;;;;38.22;39.64;100431.33;107945;1289;21989;-60
2023/05/25 08:21:08;;;;;;;4.50;2.70;;;;;;;38.35;38.66;100430.88;107946;1290;21960;-60
2023/05/25 08:23:34;;;;;;;4.10;2.50;;;;;;;38.31;36.31;100434.70;107963;1290;21989;-60
2023/05/25 08:26:00;;;;;;;4.80;2.10;;;;;;;38.04;36.08;100431.80;107950;1288;21987;-59
2023/05/25 08:28:26;;;;;;;3.40;2.20;;;;;;;37.86;36.57;100432.55;107955;1281;21992;-59
2023/05/25 08:30:52;;;;;;;3.20;2.00;;;;;;;37.92;36.50;100430.13;107985;1287;22029;-60
2023/05/25 08:33:18;;;;;;;3.80;2.30;;;;;;;38.11;37.40;100430.00;107912;1284;22022;-59
2023/05/25 08:35:44;;;;;;;5.20;2.80;;;;;;;38.36;37.39;100432.80;107900;1290;21993;-59
2023/05/25 08:38:09;;;;;;;3.20;2.20;;;;;;;38.62;37.20;100431.31;107943;1284;21993;-61
2023/05/25 08:40:35;;;;;;;3.50;2.10;;;;;;;38.85;36.68;100427.67;108002;1290;22005;-61
2023/05/25 08:43:01;;;;;;;3.90;2.50;;;;;;;38.87;33.66;100428.92;107734;1288;21994;-60
2023/05/25 08:45:26;;;;;;;4.60;2.80;;;;;;;38.36;32.65;100428.47;107913;1290;21994;-60
2023/05/25 08:47:53;;;;;;;5.40;2.80;;;;;;;37.67;34.39;100428.23;107797;1284;21995;-60
2023/05/25 08:50:18;;;;;;;4.50;3.90;;;;;;;37.19;35.36;100425.57;107827;1290;21993;-60
2023/05/25 08:52:45;;;;;;;3.80;3.00;;;;;;;37.07;35.63;100424.02;107712;1288;21989;-61
2023/05/25 08:55:11;;;;;;;3.10;2.70;;;;;;;36.98;35.51;100423.79;107991;1280;22026;-60
2023/05/25 08:57:56;;;;;;;3.80;2.90;;;;;;;36.93;36.21;100424.27;107808;1289;22026;-60
2023/05/25 09:00:27;;;;;;;5.00;3.20;;;;;;;37.17;36.27;100419.85;107998;1289;21983;-60
2023/05/25 09:02:55;;;;;;;6.40;4.60;;;;;;;37.51;36.52;100422.73;108003;1289;22099;-61
2023/05/25 09:05:21;;;;;;;5.30;3.40;;;;;;;37.84;36.78;100419.52;107985;1281;22006;-60
2023/05/25 09:07:47;;;;;;;4.50;3.10;;;;;;;38.06;36.17;100419.77;107992;1289;21992;-60
2023/05/25 09:10:13;;;;;;;7.30;3.10;;;;;;;38.10;35.55;100419.80;108004;1286;21989;-60
2023/05/25 09:12:39;;;;;;;4.10;2.80;;;;;;;38.03;35.65;100419.61;107917;1289;21984;-60
2023/05/25 09:15:06;;;;;;;4.20;2.40;;;;;;;37.95;35.78;100415.14;107837;1287;21997;-60
2023/05/25 09:17:32;;;;;;;3.40;2.50;;;;;;;37.99;35.65;100420.27;107986;1289;21987;-60
2023/05/25 09:19:58;;;;;;;4.30;2.50;;;;;;;38.08;35.42;100422.66;108009;1289;21992;-61
2023/05/25 09:22:23;;;;;;;3.50;2.40;;;;;;;38.17;35.13;100416.56;108037;1289;22005;-59
2023/05/25 09:24:49;;;;;;;4.60;2.60;;;;;;;38.31;35.48;100416.44;107991;1288;21989;-59
2023/05/25 09:27:16;;;;;;;4.80;2.20;;;;;;;38.59;35.28;100412.23;107710;1283;21997;-61
2023/05/25 09:29:42;;;;;;;3.50;2.00;;;;;;;39.07;34.96;100409.06;108045;1284;21992;-60
2023/05/25 09:32:07;;;;;;;3.90;1.80;;;;;;;39.55;34.49;100407.58;107913;1289;21993;-62
2023/05/25 09:34:34;;;;;;;3.10;1.90;;;;;;;39.79;33.13;100403.73;107996;1289;22002;-60
2023/05/25 09:37:03;;;;;;;4.10;2.00;;;;;;;39.72;31.76;100398.08;107986;1289;21998;-60
2023/05/25 09:39:29;;;;;;;2.70;1.80;;;;;;;39.60;31.03;100399.64;108056;1280;22001;-61
2023/05/25 09:41:56;;;;;;;3.40;1.90;;;;;;;39.59;31.11;100396.36;107980;1289;22086;-60
2023/05/25 09:50:16;;;;;;;2.40;1.90;;;;;;;39.60;30.14;100376.38;108579;1280;21985;-60
2023/05/25 09:52:42;;;;;;;3.20;1.90;;;;;;;39.81;31.77;100376.13;108422;1277;21987;-60
2023/05/25 09:55:09;;;;;;;3.20;2.00;;;;;;;40.27;31.96;100369.98;108231;1268;22034;-59
2023/05/25 09:57:35;;;;;;;2.30;1.70;;;;;;;40.68;31.82;100369.11;108506;1277;21977;-61
2023/05/25 10:00:04;;;;;;;3.50;2.20;;;;;;;40.94;30.61;100369.04;108495;1271;152831;-60
2023/05/25 10:02:30;;;;;;;3.00;2.20;;;;;;;40.96;29.60;100360.75;108727;1278;21975;-62
2023/05/25 10:04:56;;;;;;;2.60;2.00;;;;;;;40.86;29.45;100352.56;108499;1268;22011;-60
2023/05/25 10:07:22;;;;;;;3.00;1.80;;;;;;;40.61;28.49;100352.03;108712;1268;21948;-61
2023/05/25 10:09:48;;;;;;;1.90;1.70;;;;;;;40.40;28.75;100347.73;108465;1278;21977;-59
2023/05/25 10:12:16;;;;;;;4.00;1.50;;;;;;;40.23;28.48;100347.56;108523;1278;21991;-61
2023/05/25 10:14:42;;;;;;;2.00;1.60;;;;;;;40.10;29.37;100344.06;108720;1273;22023;-59
2023/05/25 10:17:07;;;;;;;3.80;1.70;;;;;;;40.19;29.68;100340.98;108477;1270;22043;-61
2023/05/25 10:19:41;;;;;;;3.00;1.90;;;;;;;40.55;30.44;100341.67;108499;1273;21979;-60
2023/05/25 10:22:46;;;;;;;3.20;1.90;;;;;;;41.10;30.96;100341.27;108752;1274;21990;-62
2023/05/25 10:25:22;;;;;;;2.60;1.70;;;;;;;41.65;30.65;100342.54;108318;1279;21979;-61
2023/05/25 10:28:17;;;;;;;2.10;1.50;;;;;;;41.91;29.87;100348.51;108387;1279;21978;-61
2023/05/25 10:30:43;;;;;;;3.20;1.80;;;;;;;41.79;28.55;100338.97;108255;1279;21978;-61
2023/05/25 10:33:09;;;;;;;3.30;1.90;;;;;;;41.58;28.26;100332.33;108375;1280;21981;-61
2023/05/25 10:35:36;;;;;;;3.40;1.60;;;;;;;41.22;27.53;100332.45;108402;1270;21977;-61
2023/05/25 10:38:02;;;;;;;3.10;1.80;;;;;;;40.96;28.73;100329.98;108509;1267;22240;-61
2023/05/25 10:40:27;;;;;;;4.10;1.80;;;;;;;41.17;29.31;100325.65;108455;1279;21967;-61
2023/05/25 10:42:53;;;;;;;3.90;1.90;;;;;;;41.54;28.99;100323.42;108431;1276;22090;-61
2023/05/25 10:45:19;;;;;;;3.20;2.00;;;;;;;41.69;27.74;100323.64;108429;1280;21980;-61
2023/05/25 10:47:45;;;;;;;3.70;2.00;;;;;;;41.89;27.60;100324.84;108336;1279;21977;-62
2023/05/25 10:50:37;;;;;;;3.10;1.90;;;;;;;41.81;27.50;100323.27;108409;1279;22634;-61
2023/05/25 10:53:12;;;;;;;3.60;1.70;;;;;;;41.76;28.14;100324.21;108447;1279;21974;-61
2023/05/25 10:55:53;;;;;;;6.80;2.10;;;;;;;42.08;27.94;100317.77;108434;1279;21980;-61
2023/05/25 10:58:20;;;;;;;13.70;2.30;;;;;;;41.98;27.45;100317.41;108497;1279;21987;-59
2023/05/25 11:01:09;;;;;;;5.40;2.40;;;;;;;41.77;27.67;100313.32;108534;1279;21978;-59
2023/05/25 11:04:16;;;;;;;3.80;2.20;;;;;;;41.47;26.90;100312.52;108423;1279;22195;-59
2023/05/25 11:06:45;;;;;;;2.90;2.00;;;;;;;40.68;26.96;100309.59;108493;1279;21973;-59
2023/05/25 11:09:24;;;;;;;4.20;2.20;;;;;;;39.91;27.24;100305.55;108471;1274;21990;-59
2023/05/25 11:11:51;;;;;;;6.70;2.30;;;;;;;39.16;27.51;100303.64;108492;1277;21986;-61
2023/05/25 11:14:20;;;;;;;3.30;2.20;;;;;;;38.67;28.33;100302.33;108553;1270;22035;-60
2023/05/25 11:17:10;;;;;;;3.50;2.10;;;;;;;38.36;28.87;100298.29;108423;1279;21985;-60
2023/05/25 11:19:42;;;;;;;4.70;1.90;;;;;;;38.15;28.80;100296.23;108471;1277;21981;-60
2023/05/25 11:22:21;;;;;;;2.20;1.50;;;;;;;38.06;28.83;100292.02;108491;1274;23049;-60
2023/05/25 11:24:48;;;;;;;4.90;1.70;;;;;;;38.04;27.98;100286.96;108510;1276;21992;-60
2023/05/25 11:27:14;;;;;;;3.40;1.90;;;;;;;37.90;28.08;100283.14;108591;1273;21990;-61